Time;durP1;ratioP1;P1;durP2;ratioP2;P2;SDS_P1;SDS_P2;PMS_P1;PMS_P2;Temp;Humidity;BMP_temperature;BMP_pressure;BME280_temperature;BME280_humidity;BME280_pressure;Samples;Min_cycle;Max_cycle;Signal;HPM_P1;HPM_P2
2023/07/12 00:00:23;;;;;;;7.70;2.63;;;22.70;91.40;;;;;;5053253;28;20475;-69
2023/07/12 00:02:50;;;;;;;7.60;2.40;;;22.70;91.40;;;;;;5052260;28;20792;-69
2023/07/12 00:05:18;;;;;;;4.57;2.47;;;22.70;92.10;;;;;;5035794;28;20503;-69
2023/07/12 00:07:46;;;;;;;6.10;2.20;;;22.60;91.70;;;;;;5035573;28;20438;-69
2023/07/12 00:10:21;;;;;;;3.43;2.27;;;22.60;91.60;;;;;;5055952;28;20474;-69
2023/07/12 00:12:48;;;;;;;12.00;2.83;;;22.50;91.90;;;;;;5055935;28;20423;-69
2023/07/12 00:15:19;;;;;;;4.90;2.60;;;22.50;91.60;;;;;;5047601;28;20835;-69
2023/07/12 00:17:47;;;;;;;4.47;2.30;;;22.50;91.20;;;;;;5056003;28;20422;-69
2023/07/12 00:20:27;;;;;;;4.70;3.17;;;22.50;91.40;;;;;;5041887;28;20427;-69
2023/07/12 00:22:56;;;;;;;8.90;3.00;;;22.40;91.50;;;;;;5035889;28;20473;-69
2023/07/12 00:25:32;;;;;;;5.10;2.80;;;22.30;91.90;;;;;;5035340;28;21076;-69
2023/07/12 00:28:00;;;;;;;6.70;3.03;;;22.30;92.30;;;;;;5047034;28;20429;-69
2023/07/12 00:30:29;;;;;;;7.43;2.43;;;22.30;92.60;;;;;;5055372;28;20461;-69
2023/07/12 00:33:02;;;;;;;9.50;3.07;;;22.20;93.00;;;;;;5053324;28;20442;-69
2023/07/12 00:35:30;;;;;;;5.10;2.67;;;22.20;93.30;;;;;;5034682;28;21191;-69
2023/07/12 00:38:00;;;;;;;5.80;2.50;;;22.20;93.70;;;;;;5051551;28;20509;-69
2023/07/12 00:40:50;;;;;;;8.60;2.80;;;22.20;94.10;;;;;;5055594;28;20450;-69
2023/07/12 00:43:26;;;;;;;6.27;3.37;;;22.30;94.60;;;;;;5038959;28;20435;-69
2023/07/12 00:45:55;;;;;;;4.87;3.77;;;22.30;95.00;;;;;;5038304;28;20527;-69
2023/07/12 00:48:22;;;;;;;6.40;3.63;;;22.30;95.00;;;;;;5039197;28;20493;-69
2023/07/12 00:50:50;;;;;;;5.10;3.20;;;22.30;94.90;;;;;;5034962;28;20859;-69
2023/07/12 00:53:21;;;;;;;5.67;3.03;;;22.30;95.00;;;;;;5035414;28;20501;-69
2023/07/12 00:56:00;;;;;;;9.10;3.47;;;22.30;94.90;;;;;;5034877;28;20521;-69
2023/07/12 00:58:31;;;;;;;5.43;2.90;;;22.30;94.90;;;;;;5047953;28;20910;-69
2023/07/12 01:01:00;;;;;;;8.90;3.40;;;22.30;94.60;;;;;;5055126;28;20543;-69
2023/07/12 01:03:31;;;;;;;6.10;3.20;;;22.30;94.80;;;;;;5055004;28;20433;-69
2023/07/12 01:05:59;;;;;;;9.53;3.27;;;22.20;94.80;;;;;;5054966;28;20801;-69
2023/07/12 01:08:29;;;;;;;6.40;2.87;;;22.20;94.50;;;;;;5041520;28;20450;-69
2023/07/12 01:10:57;;;;;;;7.20;3.37;;;22.20;94.80;;;;;;5034902;28;20527;-69
2023/07/12 01:13:25;;;;;;;9.03;3.20;;;22.20;95.00;;;;;;5034935;28;20439;-69
2023/07/12 01:15:53;;;;;;;7.77;3.30;;;22.10;95.30;;;;;;5034165;28;20438;-69
2023/07/12 01:18:20;;;;;;;5.43;3.97;;;22.10;95.40;;;;;;5034680;28;20449;-69
2023/07/12 01:20:48;;;;;;;9.60;3.90;;;22.10;95.20;;;;;;5034762;28;20833;-69
2023/07/12 01:23:16;;;;;;;7.20;3.33;;;22.10;95.20;;;;;;5034705;28;20431;-69
2023/07/12 01:25:46;;;;;;;5.83;3.70;;;22.10;94.80;;;;;;5034570;28;20483;-69
2023/07/12 01:28:13;;;;;;;7.03;3.80;;;22.10;95.00;;;;;;5034624;28;20521;-69
2023/07/12 01:30:41;;;;;;;5.20;2.97;;;22.00;95.20;;;;;;5034230;28;20435;-69
2023/07/12 01:33:08;;;;;;;7.53;4.07;;;22.00;95.30;;;;;;5034599;28;20456;-69
2023/07/12 01:35:35;;;;;;;6.93;3.27;;;22.00;95.60;;;;;;5034483;28;20792;-73
2023/07/12 01:38:02;;;;;;;5.80;3.27;;;22.00;95.50;;;;;;5034463;28;20429;-69
2023/07/12 01:40:31;;;;;;;8.10;3.87;;;22.00;95.60;;;;;;5033774;28;20438;-69
2023/07/12 01:42:58;;;;;;;7.53;3.23;;;22.00;96.00;;;;;;5034126;28;20443;-69
2023/07/12 01:45:25;;;;;;;6.13;3.50;;;22.00;96.00;;;;;;5034248;28;20451;-69
2023/07/12 01:47:52;;;;;;;5.97;3.97;;;21.90;96.10;;;;;;5033934;28;20921;-69
2023/07/12 01:50:19;;;;;;;6.40;3.40;;;22.00;96.40;;;;;;5034225;28;20552;-71
2023/07/12 01:52:46;;;;;;;6.00;3.37;;;21.90;96.30;;;;;;5036842;28;20444;-69
2023/07/12 01:55:13;;;;;;;7.27;4.03;;;21.90;96.30;;;;;;5053637;28;20430;-69
2023/07/12 01:57:41;;;;;;;8.90;3.67;;;21.90;96.30;;;;;;5053692;28;20442;-69
2023/07/12 02:00:09;;;;;;;7.63;3.93;;;21.90;95.90;;;;;;5053866;28;20475;-69
2023/07/12 02:02:36;;;;;;;10.33;4.00;;;22.00;95.70;;;;;;5051898;28;20875;-69
2023/07/12 02:05:03;;;;;;;8.47;3.90;;;22.00;95.70;;;;;;5034245;28;20465;-69
2023/07/12 02:07:30;;;;;;;10.27;3.67;;;21.90;95.90;;;;;;5033599;28;20470;-69
2023/07/12 02:10:10;;;;;;;13.73;4.73;;;21.90;96.10;;;;;;5033528;28;20465;-69
2023/07/12 02:12:37;;;;;;;6.70;4.63;;;21.80;96.00;;;;;;5044778;28;20537;-69
2023/07/12 02:15:06;;;;;;;7.00;3.73;;;21.70;96.00;;;;;;5053730;28;20519;-69
2023/07/12 02:17:33;;;;;;;6.33;4.50;;;21.60;96.80;;;;;;5053363;28;20446;-69
2023/07/12 02:20:00;;;;;;;8.50;3.80;;;21.50;96.60;;;;;;5053365;28;20442;-69
2023/07/12 02:22:30;;;;;;;5.87;3.70;;;21.50;97.20;;;;;;5053563;28;20494;-72
2023/07/12 02:24:57;;;;;;;7.00;3.83;;;21.50;97.00;;;;;;5053174;28;20490;-69
2023/07/12 02:27:24;;;;;;;7.53;4.43;;;21.40;97.40;;;;;;5033790;28;20477;-70
2023/07/12 02:29:51;;;;;;;7.33;4.10;;;21.40;97.50;;;;;;5033514;28;20475;-70
2023/07/12 02:32:22;;;;;;;11.47;4.03;;;21.40;97.20;;;;;;5033905;28;20511;-70
2023/07/12 02:34:49;;;;;;;5.00;3.70;;;21.30;97.40;;;;;;5033531;28;20450;-69
2023/07/12 02:37:16;;;;;;;5.50;3.20;;;21.30;97.40;;;;;;5032992;28;20454;-70
2023/07/12 02:39:44;;;;;;;6.33;3.33;;;21.30;97.40;;;;;;5051410;28;20863;-69
2023/07/12 02:42:10;;;;;;;6.30;3.10;;;21.30;97.30;;;;;;5052568;28;20507;-70
2023/07/12 02:44:39;;;;;;;5.77;3.70;;;21.20;98.00;;;;;;5053164;28;20977;-70
2023/07/12 02:47:06;;;;;;;7.87;3.70;;;21.20;98.10;;;;;;5053344;28;20556;-73
2023/07/12 02:49:35;;;;;;;5.57;3.73;;;21.10;98.40;;;;;;5053283;28;20579;-71
2023/07/12 02:52:04;;;;;;;6.97;3.80;;;21.10;98.40;;;;;;5037597;28;20508;-70
2023/07/12 02:54:31;;;;;;;5.93;3.80;;;21.10;98.20;;;;;;5037436;28;20840;-69
2023/07/12 02:56:58;;;;;;;7.73;4.27;;;21.00;98.40;;;;;;5037336;28;20471;-70
2023/07/12 02:59:25;;;;;;;6.17;3.77;;;21.00;99.00;;;;;;5037395;28;20494;-69
2023/07/12 03:01:52;;;;;;;10.87;4.83;;;21.10;99.40;;;;;;5037072;28;20471;-70
2023/07/12 03:04:20;;;;;;;7.90;3.73;;;21.10;99.50;;;;;;5037042;28;20440;-70
2023/07/12 03:06:48;;;;;;;7.47;3.90;;;21.10;98.90;;;;;;5037227;28;20510;-69
2023/07/12 03:09:15;;;;;;;8.73;3.67;;;21.10;99.20;;;;;;5037248;28;20470;-70
2023/07/12 03:11:45;;;;;;;6.00;4.07;;;21.10;99.60;;;;;;5050093;28;20518;-69
2023/07/12 03:14:12;;;;;;;5.33;3.67;;;21.10;99.60;;;;;;5057073;28;20495;-69
2023/07/12 03:16:39;;;;;;;6.77;3.87;;;21.20;99.30;;;;;;5056700;28;20950;-69
2023/07/12 03:19:06;;;;;;;8.40;5.03;;;21.20;99.00;;;;;;5056618;28;20934;-70
2023/07/12 03:21:33;;;;;;;7.30;5.37;;;21.10;99.00;;;;;;5053805;28;20437;-70
2023/07/12 03:24:02;;;;;;;6.70;4.63;;;21.10;99.20;;;;;;5056242;28;20444;-70
2023/07/12 03:26:29;;;;;;;10.00;4.63;;;21.10;99.50;;;;;;5056734;28;20968;-69
2023/07/12 03:28:58;;;;;;;5.93;4.30;;;21.10;99.70;;;;;;5056498;28;20444;-69
2023/07/12 03:31:26;;;;;;;7.23;4.50;;;21.10;99.80;;;;;;5055577;28;20446;-70
2023/07/12 03:33:53;;;;;;;10.80;4.03;;;21.20;99.30;;;;;;5056440;28;20469;-69
2023/07/12 03:36:24;;;;;;;6.90;4.10;;;21.20;99.10;;;;;;5056643;28;20449;-70
2023/07/12 03:38:52;;;;;;;7.07;3.17;;;21.10;99.00;;;;;;5056499;28;20446;-70
2023/07/12 03:41:21;;;;;;;7.67;4.10;;;21.10;99.30;;;;;;5046281;28;20522;-69
2023/07/12 03:43:51;;;;;;;7.27;4.50;;;21.10;99.20;;;;;;5036602;28;20476;-69
2023/07/12 03:46:18;;;;;;;8.93;4.13;;;21.10;99.00;;;;;;5036141;28;20993;-70
2023/07/12 03:48:45;;;;;;;6.80;3.70;;;21.10;98.80;;;;;;5036478;28;20438;-69
2023/07/12 03:51:14;;;;;;;7.07;4.30;;;21.10;98.80;;;;;;5043459;28;20537;-69
2023/07/12 03:53:41;;;;;;;6.93;3.63;;;21.10;98.60;;;;;;5056313;28;20982;-70
2023/07/12 03:56:10;;;;;;;10.43;4.47;;;21.10;98.70;;;;;;5056270;28;20472;-69
2023/07/12 03:58:40;;;;;;;7.57;4.00;;;21.00;98.90;;;;;;5055900;28;20437;-70
2023/07/12 04:01:09;;;;;;;10.03;4.47;;;21.10;98.70;;;;;;5048241;28;20439;-70
2023/07/12 04:03:37;;;;;;;8.10;4.17;;;21.10;98.70;;;;;;5035801;28;20480;-69
2023/07/12 04:06:05;;;;;;;9.00;5.03;;;21.10;98.70;;;;;;5036089;28;20447;-70
2023/07/12 04:08:33;;;;;;;6.53;4.13;;;21.00;98.90;;;;;;5036194;28;20438;-69
2023/07/12 04:11:00;;;;;;;8.83;4.90;;;21.00;98.90;;;;;;5041069;28;20796;-71
2023/07/12 04:13:28;;;;;;;10.27;4.40;;;21.00;99.00;;;;;;5056013;28;20448;-70
2023/07/12 04:15:59;;;;;;;6.47;4.30;;;21.00;99.30;;;;;;5055664;28;20927;-71
2023/07/12 04:18:27;;;;;;;5.00;3.70;;;21.00;99.30;;;;;;5055854;28;20464;-71
2023/07/12 04:20:55;;;;;;;8.37;3.97;;;21.00;99.30;;;;;;5050502;28;20504;-70
2023/07/12 04:23:22;;;;;;;6.43;4.83;;;21.00;99.20;;;;;;5035597;28;20485;-69
2023/07/12 04:25:57;;;;;;;7.97;4.67;;;21.00;99.50;;;;;;5040407;28;20958;-69
2023/07/12 04:28:24;;;;;;;9.30;4.30;;;21.00;99.30;;;;;;5055545;28;20540;-70
2023/07/12 04:30:51;;;;;;;6.80;5.17;;;21.00;99.40;;;;;;5055346;28;20480;-70
2023/07/12 04:33:19;;;;;;;5.30;4.33;;;21.00;99.70;;;;;;5047375;28;20804;-70
2023/07/12 04:35:46;;;;;;;7.30;4.20;;;21.00;99.80;;;;;;5056427;28;20944;-70
2023/07/12 04:38:13;;;;;;;11.50;4.80;;;20.90;99.90;;;;;;5054895;28;20546;-70
2023/07/12 04:40:40;;;;;;;11.00;6.97;;;20.90;99.70;;;;;;5037610;28;20455;-70
2023/07/12 04:43:09;;;;;;;10.93;6.27;;;20.90;99.80;;;;;;5041640;28;20442;-70
2023/07/12 04:45:36;;;;;;;8.20;6.47;;;20.90;99.90;;;;;;5041431;28;20437;-70
2023/07/12 04:48:03;;;;;;;10.60;6.53;;;20.90;99.90;;;;;;5054374;28;20466;-69
2023/07/12 04:50:34;;;;;;;9.50;5.77;;;20.90;99.90;;;;;;5052584;28;20473;-70
2023/07/12 04:53:01;;;;;;;5.70;4.30;;;21.00;99.90;;;;;;5048104;28;20591;-70
2023/07/12 04:55:28;;;;;;;7.23;5.23;;;21.00;99.90;;;;;;5038025;28;20438;-70
2023/07/12 04:57:55;;;;;;;11.40;4.20;;;21.10;99.90;;;;;;5034342;28;20486;-70
2023/07/12 05:00:24;;;;;;;7.83;4.47;;;21.10;99.90;;;;;;5045229;28;20527;-69
2023/07/12 05:02:51;;;;;;;7.23;4.00;;;21.10;99.90;;;;;;5054280;28;20470;-70
2023/07/12 05:05:18;;;;;;;8.10;4.50;;;21.10;99.90;;;;;;5052795;28;20468;-70
2023/07/12 05:07:46;;;;;;;7.70;3.87;;;21.20;99.90;;;;;;5043122;28;20510;-70
2023/07/12 05:10:14;;;;;;;7.50;4.07;;;21.20;99.90;;;;;;5037733;28;20923;-70
2023/07/12 05:12:42;;;;;;;6.43;4.60;;;21.30;99.90;;;;;;5042313;28;20440;-70
2023/07/12 05:15:10;;;;;;;6.33;4.10;;;21.40;99.90;;;;;;5033387;28;20445;-70
2023/07/12 05:17:37;;;;;;;6.03;3.73;;;21.50;99.80;;;;;;5046279;28;20837;-70
2023/07/12 05:20:07;;;;;;;6.43;3.90;;;21.60;99.70;;;;;;5034197;28;20473;-72
2023/07/12 05:22:34;;;;;;;6.33;3.13;;;21.60;99.40;;;;;;5038992;28;20451;-71
2023/07/12 05:25:02;;;;;;;5.70;3.40;;;21.70;98.50;;;;;;5033921;28;20500;-70
2023/07/12 05:27:29;;;;;;;3.97;3.20;;;21.70;97.90;;;;;;5033563;28;20555;-70
2023/07/12 05:29:56;;;;;;;6.00;4.00;;;21.70;97.80;;;;;;5033954;28;20501;-70
2023/07/12 05:32:23;;;;;;;6.90;3.60;;;21.80;97.10;;;;;;5033437;28;20444;-69
2023/07/12 05:34:50;;;;;;;11.63;4.00;;;21.80;97.70;;;;;;5044763;28;20491;-69
2023/07/12 05:37:17;;;;;;;10.63;3.57;;;21.80;97.80;;;;;;5053568;28;20449;-70
2023/07/12 05:39:44;;;;;;;9.80;3.43;;;21.80;97.60;;;;;;5053371;28;20443;-70
2023/07/12 05:42:12;;;;;;;5.83;3.30;;;21.80;98.30;;;;;;5052295;28;20908;-70
2023/07/12 05:44:39;;;;;;;7.07;3.30;;;21.90;98.70;;;;;;5053681;28;20456;-70
2023/07/12 05:47:07;;;;;;;5.63;3.33;;;21.90;98.70;;;;;;5053328;28;20504;-70
2023/07/12 05:49:34;;;;;;;4.90;3.60;;;21.90;98.90;;;;;;5050892;28;20863;-69
2023/07/12 05:52:01;;;;;;;5.20;3.40;;;21.90;98.10;;;;;;5053386;28;20476;-70
2023/07/12 05:54:30;;;;;;;7.60;4.10;;;21.90;97.20;;;;;;5053105;28;20446;-70
2023/07/12 05:56:57;;;;;;;8.67;4.30;;;21.90;96.70;;;;;;5052652;28;20455;-70
2023/07/12 05:59:26;;;;;;;9.00;4.93;;;21.80;96.90;;;;;;5052595;28;20443;-70
2023/07/12 06:01:52;;;;;;;6.47;4.60;;;21.80;97.40;;;;;;5053326;28;20495;-70
2023/07/12 06:04:19;;;;;;;5.73;3.03;;;21.80;98.00;;;;;;5052838;28;20474;-69
2023/07/12 06:06:46;;;;;;;6.63;2.57;;;21.80;96.40;;;;;;5052498;28;20441;-71
2023/07/12 06:09:13;;;;;;;8.00;3.47;;;21.80;94.50;;;;;;5053030;28;20446;-69
2023/07/12 06:11:40;;;;;;;4.97;1.93;;;21.80;92.90;;;;;;5039445;28;20446;-70
2023/07/12 06:14:07;;;;;;;5.10;2.10;;;21.80;92.80;;;;;;5033089;28;20430;-69
2023/07/12 06:16:36;;;;;;;3.40;2.13;;;21.80;92.40;;;;;;5033137;28;20437;-69
2023/07/12 06:19:04;;;;;;;5.10;2.43;;;21.70;93.10;;;;;;5037942;28;20514;-70
2023/07/12 06:21:31;;;;;;;3.13;1.77;;;21.60;94.10;;;;;;5046227;28;20456;-70
2023/07/12 06:23:59;;;;;;;4.10;1.90;;;21.50;93.70;;;;;;5033074;28;20522;-69
2023/07/12 06:26:27;;;;;;;4.77;2.20;;;21.40;93.70;;;;;;5032110;28;20439;-70
2023/07/12 06:28:54;;;;;;;4.80;2.47;;;21.30;93.90;;;;;;5033804;28;20478;-69
2023/07/12 06:31:21;;;;;;;3.70;2.33;;;21.20;94.60;;;;;;5041524;28;21231;-70
2023/07/12 06:33:50;;;;;;;3.33;1.80;;;21.10;94.30;;;;;;5039549;28;20500;-71
2023/07/12 06:36:17;;;;;;;4.30;2.03;;;20.80;95.50;;;;;;5033231;28;20442;-70
2023/07/12 06:38:45;;;;;;;8.13;2.33;;;20.40;95.50;;;;;;5033207;28;20446;-69
2023/07/12 06:41:12;;;;;;;4.33;1.80;;;20.20;97.10;;;;;;5049931;28;20524;-69
2023/07/12 06:43:39;;;;;;;5.67;2.37;;;20.00;97.20;;;;;;5053480;28;20854;-69
2023/07/12 06:46:06;;;;;;;5.60;2.10;;;19.90;98.80;;;;;;5053529;28;20450;-69
2023/07/12 06:48:33;;;;;;;4.63;2.40;;;19.90;99.20;;;;;;5053390;28;20462;-68
2023/07/12 06:51:02;;;;;;;5.70;3.03;;;19.90;98.70;;;;;;5052941;28;20472;-69
2023/07/12 06:53:29;;;;;;;6.37;2.80;;;19.80;99.10;;;;;;5052945;28;20438;-70
2023/07/12 06:55:56;;;;;;;3.50;2.43;;;19.90;99.50;;;;;;5053184;28;20529;-69
2023/07/12 06:58:23;;;;;;;6.33;2.00;;;19.90;98.70;;;;;;5053409;28;20461;-69
2023/07/12 07:00:50;;;;;;;3.53;1.90;;;19.90;98.60;;;;;;5053407;28;20519;-69
2023/07/12 07:03:18;;;;;;;4.27;1.73;;;19.90;98.20;;;;;;5053321;28;20441;-69
2023/07/12 07:05:47;;;;;;;3.50;1.83;;;19.90;97.90;;;;;;5052926;28;20443;-69
2023/07/12 07:08:18;;;;;;;2.70;1.80;;;20.00;98.10;;;;;;5053130;28;20525;-69
2023/07/12 07:10:49;;;;;;;3.53;1.80;;;20.00;98.80;;;;;;5053149;28;20506;-69
2023/07/12 07:13:16;;;;;;;5.00;2.00;;;20.10;99.60;;;;;;5052965;28;20433;-69
2023/07/12 07:15:45;;;;;;;3.73;1.80;;;20.10;99.90;;;;;;5053244;28;20799;-69
2023/07/12 07:18:12;;;;;;;3.60;1.63;;;20.20;99.50;;;;;;5052817;28;20449;-70
2023/07/12 07:20:40;;;;;;;5.40;2.70;;;20.20;99.60;;;;;;5052907;28;20483;-69
2023/07/12 07:23:07;;;;;;;4.90;1.80;;;20.30;98.90;;;;;;5053077;28;20518;-69
2023/07/12 07:25:36;;;;;;;4.97;2.40;;;20.30;98.90;;;;;;5052987;28;20841;-69
2023/07/12 07:28:03;;;;;;;4.20;2.13;;;20.30;98.90;;;;;;5052992;28;20486;-69
2023/07/12 07:30:30;;;;;;;4.40;2.20;;;20.40;99.00;;;;;;5053047;28;20484;-69
2023/07/12 07:32:58;;;;;;;5.00;2.20;;;20.40;99.10;;;;;;5052723;28;20437;-69
2023/07/12 07:35:25;;;;;;;4.50;1.97;;;20.50;99.80;;;;;;5052657;28;20924;-69
2023/07/12 07:37:52;;;;;;;4.40;2.63;;;20.60;99.90;;;;;;5054338;28;20471;-69
2023/07/12 07:40:19;;;;;;;5.20;2.80;;;20.70;99.90;;;;;;5056528;28;20479;-69
2023/07/12 07:42:48;;;;;;;5.37;3.00;;;20.90;99.90;;;;;;5056532;28;20469;-69
2023/07/12 07:45:15;;;;;;;3.00;2.00;;;21.00;99.90;;;;;;5056542;28;20444;-69
2023/07/12 07:47:42;;;;;;;7.07;2.37;;;21.10;99.90;;;;;;5056377;28;20567;-69
2023/07/12 07:50:09;;;;;;;4.97;2.23;;;21.10;99.90;;;;;;5056398;28;20877;-69
2023/07/12 07:52:37;;;;;;;3.70;1.77;;;21.20;99.90;;;;;;5056372;28;20502;-69
2023/07/12 07:55:05;;;;;;;8.10;1.90;;;21.30;99.90;;;;;;5055973;28;20923;-69
2023/07/12 07:57:32;;;;;;;4.93;1.80;;;21.40;99.90;;;;;;5055975;28;20498;-69
2023/07/12 08:00:04;;;;;;;4.27;2.47;;;21.50;99.90;;;;;;5056267;28;20488;-69
2023/07/12 08:02:31;;;;;;;9.00;2.10;;;21.60;99.90;;;;;;5056263;28;20480;-69
2023/07/12 08:04:58;;;;;;;6.93;2.57;;;21.80;99.90;;;;;;5055919;28;20917;-69
2023/07/12 08:07:25;;;;;;;5.80;2.47;;;21.90;99.90;;;;;;5056106;28;20440;-69
2023/07/12 08:09:52;;;;;;;3.60;2.13;;;22.00;99.90;;;;;;5056029;28;20778;-69
2023/07/12 08:12:19;;;;;;;5.63;2.40;;;22.10;99.90;;;;;;5055694;28;20438;-70
2023/07/12 08:14:46;;;;;;;4.90;2.40;;;22.20;99.90;;;;;;5056103;28;20479;-69
2023/07/12 08:17:14;;;;;;;5.20;2.40;;;22.30;99.90;;;;;;5055976;28;20457;-69
2023/07/12 08:19:41;;;;;;;6.30;2.20;;;22.40;99.70;;;;;;5055903;28;20439;-69
2023/07/12 08:22:08;;;;;;;5.77;2.80;;;22.60;99.20;;;;;;5055907;28;20762;-69
2023/07/12 08:24:35;;;;;;;4.37;2.10;;;22.70;98.30;;;;;;5055723;28;20443;-69
2023/07/12 08:27:02;;;;;;;4.10;2.97;;;22.90;98.20;;;;;;5055686;28;20441;-69
2023/07/12 08:29:29;;;;;;;5.07;2.00;;;23.00;97.00;;;;;;5055673;28;20515;-69
2023/07/12 08:31:56;;;;;;;4.17;2.47;;;23.20;96.20;;;;;;5055361;28;20917;-69
2023/07/12 08:34:24;;;;;;;3.30;1.73;;;23.30;96.70;;;;;;5055663;28;20438;-69
2023/07/12 08:36:51;;;;;;;4.43;2.57;;;23.60;96.30;;;;;;5055664;28;20434;-69
2023/07/12 08:39:18;;;;;;;4.07;2.20;;;23.80;94.60;;;;;;5055567;28;20439;-69
2023/07/12 08:41:45;;;;;;;5.83;2.00;;;24.00;93.40;;;;;;5055152;28;20474;-69
2023/07/12 08:44:14;;;;;;;3.33;2.10;;;24.30;92.80;;;;;;5055493;28;20501;-69
2023/07/12 08:46:46;;;;;;;5.33;2.43;;;24.60;92.80;;;;;;5055070;28;20936;-69
2023/07/12 08:49:17;;;;;;;3.73;1.90;;;24.90;91.10;;;;;;5053504;28;20463;-69
2023/07/12 08:51:47;;;;;;;7.33;3.10;;;25.10;89.10;;;;;;5055035;28;20448;-69
2023/07/12 08:54:23;;;;;;;5.07;2.33;;;25.30;89.70;;;;;;5054940;28;20478;-69
2023/07/12 08:56:50;;;;;;;3.60;2.20;;;25.60;90.80;;;;;;5055274;28;20474;-69
2023/07/12 08:59:18;;;;;;;3.37;1.80;;;26.00;90.50;;;;;;5054810;28;20506;-69
2023/07/12 09:01:49;;;;;;;3.67;1.87;;;26.30;88.30;;;;;;5054825;28;20444;-70
2023/07/12 09:04:26;;;;;;;5.33;2.03;;;26.70;89.40;;;;;;5054795;28;20428;-74
2023/07/12 09:06:57;;;;;;;4.43;2.03;;;27.00;86.50;;;;;;5054721;28;20433;-69
2023/07/12 09:09:24;;;;;;;3.30;2.30;;;27.30;76.40;;;;;;5054561;28;20481;-70
2023/07/12 09:11:51;;;;;;;4.33;2.33;;;27.60;76.90;;;;;;5054884;28;20469;-69
2023/07/12 09:14:20;;;;;;;5.57;2.50;;;27.70;75.40;;;;;;5054860;28;20434;-69
2023/07/12 09:16:49;;;;;;;5.40;2.50;;;27.90;76.10;;;;;;5054465;28;20437;-70
2023/07/12 09:19:19;;;;;;;4.47;2.10;;;28.10;72.40;;;;;;5054447;28;20449;-69
2023/07/12 09:21:51;;;;;;;4.63;2.13;;;28.30;73.70;;;;;;5054446;28;20441;-71
2023/07/12 09:24:24;;;;;;;2.97;1.80;;;28.40;71.50;;;;;;5054797;28;20823;-70
2023/07/12 09:26:52;;;;;;;6.47;2.70;;;28.60;71.30;;;;;;5054813;28;20441;-70
2023/07/12 09:29:22;;;;;;;3.07;1.70;;;28.70;69.40;;;;;;5054079;28;20979;-70
2023/07/12 09:31:51;;;;;;;3.93;1.90;;;28.80;69.60;;;;;;5054576;28;20801;-70
2023/07/12 09:34:22;;;;;;;3.13;1.40;;;28.90;68.80;;;;;;5054449;28;20444;-70
2023/07/12 09:36:57;;;;;;;3.97;2.13;;;29.10;67.10;;;;;;5054207;28;20971;-70
2023/07/12 09:39:26;;;;;;;4.00;2.23;;;29.20;64.70;;;;;;5054445;28;20825;-70
2023/07/12 09:41:57;;;;;;;5.10;1.90;;;29.20;62.20;;;;;;5054294;28;20448;-70
2023/07/12 09:44:24;;;;;;;2.80;1.43;;;29.30;62.40;;;;;;5053971;28;20900;-70
2023/07/12 09:46:58;;;;;;;4.10;2.00;;;29.50;60.80;;;;;;5053981;28;20527;-70
2023/07/12 09:49:29;;;;;;;4.50;2.03;;;29.60;59.70;;;;;;5053783;28;20485;-70
2023/07/12 09:52:05;;;;;;;4.73;2.00;;;29.70;58.30;;;;;;5054354;28;20429;-70
2023/07/12 09:54:47;;;;;;;5.37;1.90;;;29.80;58.30;;;;;;5054098;28;20425;-70
2023/07/12 09:57:18;;;;;;;3.60;2.03;;;29.90;59.40;;;;;;5053781;28;20954;-69
2023/07/12 09:59:57;;;;;;;4.37;2.10;;;30.10;57.70;;;;;;5053897;28;20434;-70
2023/07/12 10:02:35;;;;;;;4.63;2.70;;;30.20;57.90;;;;;;5054118;28;20437;-70
2023/07/12 10:05:07;;;;;;;4.23;1.87;;;30.30;55.90;;;;;;5053736;28;20434;-70
2023/07/12 10:07:46;;;;;;;4.47;2.27;;;30.40;57.40;;;;;;5053567;28;20437;-70
2023/07/12 10:10:26;;;;;;;3.20;2.10;;;30.60;57.60;;;;;;5053765;28;20915;-70
2023/07/12 10:13:01;;;;;;;4.10;2.37;;;30.80;56.10;;;;;;5053297;28;20472;-70
2023/07/12 10:15:32;;;;;;;3.83;2.23;;;31.00;56.20;;;;;;5053832;28;20487;-70
2023/07/12 10:17:59;;;;;;;4.73;2.03;;;31.20;55.60;;;;;;5053996;28;20433;-70
2023/07/12 10:20:26;;;;;;;3.17;1.83;;;31.40;54.50;;;;;;5053368;28;20932;-70
2023/07/12 10:22:54;;;;;;;3.30;2.17;;;31.50;55.10;;;;;;5053326;28;20441;-70
2023/07/12 10:25:27;;;;;;;3.30;2.27;;;31.60;54.90;;;;;;5053281;28;20445;-70
2023/07/12 10:28:00;;;;;;;3.67;2.13;;;31.70;52.70;;;;;;5053359;28;20456;-70
2023/07/12 10:30:28;;;;;;;3.53;1.93;;;31.70;52.80;;;;;;5053683;28;20429;-70
2023/07/12 10:33:02;;;;;;;4.80;2.63;;;31.70;52.70;;;;;;5053595;28;20907;-70
2023/07/12 10:35:43;;;;;;;4.00;2.30;;;31.80;52.50;;;;;;5053620;28;20430;-70
2023/07/12 10:38:14;;;;;;;3.87;2.20;;;31.90;50.60;;;;;;5053285;28;20459;-70
2023/07/12 10:40:49;;;;;;;5.73;2.87;;;32.20;52.20;;;;;;5053179;28;20483;-70
2023/07/12 10:43:21;;;;;;;6.30;2.37;;;32.50;51.00;;;;;;5053600;28;20456;-70
2023/07/12 10:45:50;;;;;;;4.17;2.20;;;32.60;50.90;;;;;;5053549;28;20426;-70
2023/07/12 10:48:24;;;;;;;3.60;2.30;;;32.70;50.20;;;;;;5053290;28;20437;-70
2023/07/12 10:50:54;;;;;;;4.53;2.40;;;32.60;49.50;;;;;;5053354;28;20559;-70
2023/07/12 10:53:22;;;;;;;6.03;2.23;;;32.50;48.10;;;;;;5053551;28;20480;-70
2023/07/12 10:56:10;;;;;;;3.70;2.20;;;32.30;48.90;;;;;;5053271;28;20494;-70
2023/07/12 10:58:49;;;;;;;6.13;2.20;;;32.20;47.40;;;;;;5053480;28;20505;-71
2023/07/12 11:01:49;;;;;;;5.97;2.77;;;32.20;46.80;;;;;;5053752;28;20526;-70
2023/07/12 11:04:18;;;;;;;5.97;2.40;;;32.10;45.70;;;;;;5050171;28;20520;-70
2023/07/12 11:07:02;;;;;;;5.53;2.10;;;32.10;46.20;;;;;;5053162;28;20449;-70
2023/07/12 11:09:59;;;;;;;5.50;2.87;;;32.20;47.00;;;;;;5052819;28;20958;-70
2023/07/12 11:12:38;;;;;;;4.53;2.60;;;32.60;46.50;;;;;;5051319;28;20495;-70
2023/07/12 11:15:21;;;;;;;4.20;2.37;;;32.80;47.00;;;;;;5057180;28;20796;-70
2023/07/12 11:18:01;;;;;;;7.80;2.80;;;33.10;46.50;;;;;;5056640;28;20432;-70
2023/07/12 11:20:31;;;;;;;6.10;2.20;;;33.30;46.50;;;;;;5057049;28;20851;-71
2023/07/12 11:23:01;;;;;;;5.07;2.10;;;33.50;45.60;;;;;;5056899;28;20441;-71
2023/07/12 11:25:40;;;;;;;3.20;2.20;;;33.60;43.30;;;;;;5056522;28;20441;-70
2023/07/12 11:28:29;;;;;;;8.70;3.00;;;33.80;42.30;;;;;;5056589;28;20418;-71
2023/07/12 11:31:18;;;;;;;5.23;2.50;;;33.80;42.60;;;;;;5056810;28;20443;-70
2023/07/12 11:33:49;;;;;;;4.87;2.80;;;33.60;42.00;;;;;;5057017;28;20756;-72
2023/07/12 11:36:22;;;;;;;5.17;3.00;;;33.30;42.10;;;;;;5056828;28;20838;-70
2023/07/12 11:38:50;;;;;;;5.93;2.67;;;33.00;41.40;;;;;;5056464;28;20429;-70
2023/07/12 11:41:19;;;;;;;5.77;3.17;;;32.80;42.30;;;;;;5056701;28;20435;-70
2023/07/12 11:43:47;;;;;;;6.40;3.07;;;32.80;43.10;;;;;;5056786;28;20843;-70
2023/07/12 11:46:17;;;;;;;6.70;2.80;;;32.90;43.70;;;;;;5056465;28;20473;-70
2023/07/12 11:48:49;;;;;;;5.03;2.40;;;33.00;43.10;;;;;;5056056;28;20508;-70
2023/07/12 11:51:21;;;;;;;8.10;3.17;;;33.00;42.80;;;;;;5056572;28;20488;-70
2023/07/12 11:53:57;;;;;;;6.87;3.20;;;33.00;42.70;;;;;;5056165;28;20483;-70
2023/07/12 11:56:24;;;;;;;6.30;2.17;;;33.00;43.70;;;;;;5055941;28;20494;-70
2023/07/12 11:58:52;;;;;;;5.93;2.37;;;33.10;43.30;;;;;;5055971;28;20487;-70
2023/07/12 12:01:21;;;;;;;6.23;3.10;;;33.10;43.10;;;;;;5056171;28;20445;-70
2023/07/12 12:03:51;;;;;;;6.20;2.90;;;33.00;42.90;;;;;;5053156;28;20935;-70
2023/07/12 12:06:19;;;;;;;8.90;3.67;;;32.90;43.60;;;;;;5055940;28;20422;-70
2023/07/12 12:11:55;;;;;;;7.83;3.30;;;32.30;44.50;;;;;;4953126;23;21135;-69
2023/07/12 12:14:28;;;;;;;9.80;3.70;;;32.00;45.10;;;;;;5028879;28;20537;-70
2023/07/12 12:16:57;;;;;;;3.73;2.70;;;31.80;45.50;;;;;;5030581;28;20437;-72
2023/07/12 12:19:28;;;;;;;10.70;3.37;;;31.70;45.60;;;;;;5033110;28;20951;-70
2023/07/12 12:22:03;;;;;;;6.77;3.57;;;31.60;46.30;;;;;;5032981;28;20870;-69
2023/07/12 12:24:41;;;;;;;5.73;3.73;;;31.50;46.70;;;;;;5014399;28;21017;-69
2023/07/12 12:27:17;;;;;;;9.30;3.33;;;31.40;46.80;;;;;;5019089;28;21000;-69
2023/07/12 12:29:45;;;;;;;7.93;4.20;;;31.30;47.20;;;;;;5018464;28;20827;-69
2023/07/12 12:32:16;;;;;;;7.07;2.87;;;31.20;47.80;;;;;;5027451;28;20522;-69
2023/07/12 12:34:47;;;;;;;5.03;2.80;;;31.10;49.80;;;;;;5031722;28;20504;-69
2023/07/12 12:37:19;;;;;;;5.80;3.10;;;31.00;50.10;;;;;;5026610;28;20447;-69
2023/07/12 12:39:57;;;;;;;5.50;3.23;;;30.90;50.40;;;;;;5030070;28;20435;-69
2023/07/12 12:42:25;;;;;;;10.13;3.80;;;30.90;49.90;;;;;;5023351;28;20440;-69
2023/07/12 12:44:55;;;;;;;9.17;4.20;;;30.70;48.80;;;;;;5027975;28;20439;-70
2023/07/12 12:47:23;;;;;;;12.30;3.93;;;30.80;48.60;;;;;;5021233;28;20442;-69
2023/07/12 12:49:50;;;;;;;6.73;3.27;;;30.80;49.40;;;;;;5025934;28;20573;-69
2023/07/12 12:52:25;;;;;;;5.20;2.50;;;30.90;48.80;;;;;;5021972;28;20530;-69
2023/07/12 12:54:52;;;;;;;11.70;3.53;;;31.00;48.90;;;;;;5020222;28;20477;-70
2023/07/12 12:57:19;;;;;;;7.20;3.17;;;31.00;48.30;;;;;;5031936;28;20444;-69
2023/07/12 12:59:47;;;;;;;4.20;2.50;;;31.00;48.50;;;;;;5029935;28;20448;-69